Time;durP1;ratioP1;P1;durP2;ratioP2;P2;SDS_P1;SDS_P2;PMS_P1;PMS_P2;Temp;Humidity;BMP_temperature;BMP_pressure;BME280_temperature;BME280_humidity;BME280_pressure;Samples;Min_cycle;Max_cycle;Signal;HPM_P1;HPM_P2
2023/02/07 00:00:29;;;;;;;16.93;12.83;;;-2.90;83.20;;;-3.65;80.28;100088.03;5089725;28;20474;-70
2023/02/07 00:02:58;;;;;;;16.87;12.60;;;-2.90;82.80;;;-3.80;80.37;100068.47;5083315;28;20540;-70
2023/02/07 00:05:25;;;;;;;24.53;14.80;;;-2.90;83.00;;;-3.78;80.11;100082.50;5085100;28;20935;-71
2023/02/07 00:07:52;;;;;;;21.53;13.70;;;-2.90;83.20;;;-3.94;80.49;100082.34;5082334;28;20452;-69
2023/02/07 00:10:19;;;;;;;20.60;13.20;;;-3.00;83.20;;;-3.92;80.81;100083.13;5076233;28;20525;-71
2023/02/07 00:12:47;;;;;;;23.57;14.27;;;-3.00;83.60;;;-3.87;80.50;100067.91;5089342;28;20455;-70
2023/02/07 00:15:17;;;;;;;17.67;13.67;;;-3.00;83.20;;;-3.86;80.59;100067.00;5080086;28;20466;-71
2023/02/07 00:17:44;;;;;;;20.33;13.83;;;-3.00;83.20;;;-3.91;80.33;100069.00;5091801;28;20455;-70
2023/02/07 00:20:13;;;;;;;20.07;14.80;;;-3.00;83.00;;;-4.00;80.74;100060.59;5078288;28;20515;-70
2023/02/07 00:22:40;;;;;;;22.03;14.67;;;-3.10;83.10;;;-3.95;80.40;100048.94;5081108;28;20527;-71
2023/02/07 00:25:09;;;;;;;20.93;14.40;;;-3.00;83.10;;;-3.90;80.20;100054.84;5083645;28;20569;-71
2023/02/07 00:27:36;;;;;;;22.40;14.77;;;-3.10;82.80;;;-4.00;80.16;100047.38;5089721;28;20444;-70
2023/02/07 00:30:05;;;;;;;19.57;13.83;;;-3.20;83.60;;;-4.01;80.39;100035.09;5085143;28;20464;-72
2023/02/07 00:32:34;;;;;;;17.00;13.47;;;-3.20;84.10;;;-4.06;80.62;100026.53;5102153;28;21152;-68
2023/02/07 00:35:02;;;;;;;21.43;14.97;;;-3.20;84.30;;;-4.10;81.09;100035.53;5083934;28;20459;-70
2023/02/07 00:37:31;;;;;;;23.70;15.10;;;-3.30;84.20;;;-4.20;81.12;100040.38;5081573;28;20451;-70
2023/02/07 00:39:58;;;;;;;21.57;15.40;;;-3.30;85.20;;;-4.19;81.43;100051.78;5098809;28;20490;-70
2023/02/07 00:42:25;;;;;;;19.70;14.50;;;-3.30;85.10;;;-4.21;81.25;100048.38;5083690;28;20452;-71
2023/02/07 00:44:52;;;;;;;21.30;14.63;;;-3.30;85.60;;;-4.26;81.29;100053.84;5084042;28;20452;-71
2023/02/07 00:47:20;;;;;;;20.47;14.23;;;-3.30;85.30;;;-4.32;81.58;100057.66;5084431;28;20458;-71
2023/02/07 00:49:47;;;;;;;23.73;15.93;;;-3.40;85.30;;;-4.23;81.54;100066.06;5081809;28;20448;-72
2023/02/07 00:52:14;;;;;;;19.90;14.67;;;-3.40;85.40;;;-4.32;81.28;100062.06;5085428;28;20440;-71
2023/02/07 00:54:43;;;;;;;19.17;14.13;;;-3.40;84.90;;;-4.35;81.55;100057.78;5084667;28;20451;-69
2023/02/07 00:57:10;;;;;;;23.87;17.00;;;-3.40;85.30;;;-4.37;81.71;100064.91;5084422;28;20836;-70
2023/02/07 00:59:37;;;;;;;24.33;14.83;;;-3.50;85.30;;;-4.31;81.51;100063.78;5084724;28;20453;-70
2023/02/07 01:02:05;;;;;;;22.10;16.73;;;-3.50;85.30;;;-4.48;82.00;100083.00;5081334;28;20459;-70
2023/02/07 01:04:32;;;;;;;23.90;15.90;;;-3.50;85.90;;;-4.88;82.11;99991.53;5104451;28;20458;-72
2023/02/07 01:06:59;;;;;;;21.20;14.30;;;-3.50;85.70;;;-4.78;82.10;100018.34;5088242;28;20463;-70
2023/02/07 01:09:26;;;;;;;24.03;15.80;;;-3.60;85.50;;;-4.50;82.31;100063.75;5085069;28;20444;-71
2023/02/07 01:11:55;;;;;;;21.37;15.43;;;-3.60;85.60;;;-4.49;81.97;100058.41;5086102;28;20522;-70
2023/02/07 01:14:22;;;;;;;22.23;14.50;;;-3.60;85.80;;;-4.41;81.61;100077.38;5086928;28;20453;-71
2023/02/07 01:16:49;;;;;;;22.20;16.03;;;-3.60;85.80;;;-4.52;81.74;100086.72;5088253;28;20518;-70
2023/02/07 01:19:18;;;;;;;23.93;15.67;;;-3.60;85.90;;;-4.46;81.70;100071.47;5086499;28;20549;-71
2023/02/07 01:21:46;;;;;;;18.90;14.60;;;-3.60;86.30;;;-4.46;81.57;100076.75;5076358;28;20468;-72
2023/02/07 01:24:13;;;;;;;20.70;14.20;;;-3.70;85.90;;;-4.49;81.43;100074.25;5075389;28;20813;-70
2023/02/07 01:26:40;;;;;;;24.20;15.80;;;-3.70;85.80;;;-4.71;81.95;100082.25;5083493;28;20597;-70
2023/02/07 01:29:14;;;;;;;24.77;16.20;;;-3.80;86.20;;;-4.92;81.91;100029.53;5077093;28;20449;-69
2023/02/07 01:31:42;;;;;;;26.50;16.87;;;-3.70;86.70;;;-4.64;82.21;100090.75;5081812;28;20474;-68
2023/02/07 01:34:12;;;;;;;21.20;16.77;;;-3.80;86.40;;;-4.72;81.98;100068.19;5097987;28;20541;-69
2023/02/07 01:36:40;;;;;;;22.07;16.80;;;-3.80;86.30;;;-4.68;82.31;100078.63;5075926;28;20456;-70
2023/02/07 01:39:07;;;;;;;23.23;15.90;;;-3.80;86.70;;;-4.73;82.51;100081.47;5072757;28;20444;-69
2023/02/07 01:41:35;;;;;;;25.23;17.03;;;-3.80;86.90;;;-4.68;82.48;100082.13;5084939;28;20471;-69
2023/02/07 01:44:05;;;;;;;23.90;15.33;;;-3.80;86.40;;;-4.74;82.55;100090.31;5081410;28;20931;-70
2023/02/07 01:46:35;;;;;;;27.40;18.27;;;-3.80;86.70;;;-4.78;82.73;100075.50;5093123;28;20462;-70
2023/02/07 01:49:12;;;;;;;27.40;18.57;;;-3.80;86.50;;;-4.81;82.60;100075.66;5109099;28;20456;-68
2023/02/07 01:51:42;;;;;;;25.27;16.30;;;-3.80;86.50;;;-4.79;82.62;100069.41;5089740;28;20465;-70
2023/02/07 01:54:13;;;;;;;25.40;16.83;;;-3.80;86.50;;;-4.77;82.56;100067.53;5090107;28;20447;-70
2023/02/07 01:56:48;;;;;;;30.40;19.10;;;-3.80;86.50;;;-4.87;82.72;100058.31;5087097;28;20446;-69
2023/02/07 01:59:16;;;;;;;23.63;18.13;;;-3.90;86.50;;;-4.83;82.65;100052.00;5095742;28;20467;-71
2023/02/07 02:01:46;;;;;;;23.93;18.20;;;-3.90;86.60;;;-4.98;82.97;100045.59;5092584;28;20472;-69
2023/02/07 02:04:13;;;;;;;33.37;18.17;;;-3.90;87.10;;;-5.04;82.90;100022.16;5089496;28;20455;-69
2023/02/07 02:06:41;;;;;;;26.10;18.67;;;-4.00;86.70;;;-4.94;82.77;100033.97;5064069;28;20444;-68
2023/02/07 02:09:12;;;;;;;25.13;18.00;;;-4.00;86.90;;;-4.98;82.78;100042.97;5085421;28;20448;-67
2023/02/07 02:12:14;;;;;;;27.33;17.40;;;-4.00;87.20;;;-5.01;83.27;100043.09;5085398;28;20444;-68
2023/02/07 02:15:13;;;;;;;21.80;16.40;;;-4.10;87.70;;;-5.04;83.06;100027.41;5077139;28;20870;-69
2023/02/07 02:18:01;;;;;;;26.77;17.80;;;-4.10;87.60;;;-4.96;82.52;100035.84;5081447;28;20448;-69
2023/02/07 02:21:16;;;;;;;24.37;16.87;;;-4.10;87.50;;;-4.98;82.66;100041.19;5080637;28;20462;-70
2023/02/07 02:24:08;;;;;;;25.80;18.00;;;-4.20;88.00;;;-5.12;82.45;100041.78;5080030;28;20448;-71
2023/02/07 02:26:53;;;;;;;24.07;17.10;;;-4.30;87.30;;;-5.15;82.72;100047.19;5082424;28;20480;-69
2023/02/07 02:29:53;;;;;;;25.90;17.30;;;-4.40;89.00;;;-5.19;82.92;100066.69;5079019;28;20805;-72
2023/02/07 02:33:16;;;;;;;26.73;18.60;;;-4.40;89.80;;;-5.20;83.21;100066.75;5081648;28;20444;-69
2023/02/07 02:35:54;;;;;;;25.57;16.77;;;-4.40;90.00;;;-5.28;83.09;100046.84;5084157;28;20641;-72
2023/02/07 02:38:28;;;;;;;26.37;17.53;;;-4.40;89.70;;;-5.20;82.65;100051.81;5077886;28;20466;-70
2023/02/07 02:41:01;;;;;;;30.33;18.67;;;-4.40;89.80;;;-5.31;83.11;100051.38;5079496;28;20861;-71
2023/02/07 02:43:37;;;;;;;27.30;18.10;;;-4.40;89.70;;;-5.28;83.25;100051.25;5084997;28;20452;-70
2023/02/07 02:46:12;;;;;;;28.20;17.87;;;-4.50;88.90;;;-5.31;83.34;100040.84;5076005;28;20448;-68
2023/02/07 02:48:43;;;;;;;28.50;18.43;;;-4.50;90.00;;;-5.37;83.73;100047.22;5080977;28;20461;-69
2023/02/07 02:51:10;;;;;;;26.63;18.70;;;-4.60;90.20;;;-5.38;83.46;100055.19;5081715;28;20452;-72
2023/02/07 02:53:38;;;;;;;26.87;17.17;;;-4.60;90.40;;;-5.34;83.51;100054.16;5084746;28;20546;-70
2023/02/07 02:56:42;;;;;;;27.60;18.43;;;-4.60;90.10;;;-5.36;83.18;100048.09;5077340;28;20454;-68
2023/02/07 02:59:41;;;;;;;27.60;17.50;;;-4.60;90.20;;;-5.40;83.11;100045.56;5081441;28;20450;-71
2023/02/07 03:02:22;;;;;;;30.20;19.30;;;-4.60;89.70;;;-5.47;83.01;100025.69;5078048;28;20484;-71
2023/02/07 03:05:13;;;;;;;32.60;20.00;;;-4.60;89.40;;;-5.52;83.77;100022.38;5080203;28;20493;-70
2023/02/07 03:07:55;;;;;;;32.07;19.60;;;-4.70;89.70;;;-5.49;83.22;100019.63;5088045;28;20452;-71
2023/02/07 03:10:32;;;;;;;32.23;20.87;;;-4.70;89.60;;;-5.56;83.50;100018.13;5081121;28;20539;-71
2023/02/07 03:13:10;;;;;;;27.43;19.10;;;-4.70;89.10;;;-5.57;83.34;100016.44;5080061;28;20456;-70
2023/02/07 03:15:51;;;;;;;29.03;18.90;;;-4.80;89.20;;;-5.74;83.64;100009.25;5078654;28;21061;-68
2023/02/07 03:18:25;;;;;;;30.27;19.97;;;-4.90;90.20;;;-5.72;84.12;100005.59;5083992;28;20459;-71
2023/02/07 03:20:59;;;;;;;37.20;19.93;;;-4.80;90.70;;;-5.67;84.02;100023.03;5082356;28;20475;-69
2023/02/07 03:23:29;;;;;;;30.97;21.63;;;-4.90;90.50;;;-5.85;83.94;100009.66;5082986;28;20463;-72
2023/02/07 03:25:59;;;;;;;28.17;19.70;;;-4.90;90.70;;;-5.78;84.41;100020.78;5105653;28;20451;-71
2023/02/07 03:28:28;;;;;;;29.77;20.40;;;-4.90;91.00;;;-5.77;84.72;100028.66;5096028;28;20456;-70
2023/02/07 03:30:56;;;;;;;32.30;20.53;;;-4.80;90.60;;;-5.70;84.17;100030.09;5081727;28;20435;-71
2023/02/07 03:33:25;;;;;;;32.83;20.50;;;-4.80;90.50;;;-5.72;84.00;100026.66;5092771;28;20460;-69
2023/02/07 03:36:04;;;;;;;28.67;19.73;;;-4.80;90.30;;;-5.93;84.09;99994.16;5089024;28;20823;-72
2023/02/07 03:38:32;;;;;;;33.67;22.73;;;-4.80;90.10;;;-6.30;84.77;99946.50;5084362;28;21007;-71
2023/02/07 03:41:06;;;;;;;34.53;21.67;;;-4.90;90.50;;;-5.85;84.73;99994.72;5080261;28;20499;-70
2023/02/07 03:43:36;;;;;;;30.30;19.30;;;-4.90;90.80;;;-5.78;84.12;100021.66;5084142;28;20460;-72
2023/02/07 03:46:03;;;;;;;36.65;21.13;;;-4.90;90.60;;;-5.82;84.98;100025.34;5086078;28;20517;-70
2023/02/07 03:48:30;;;;;;;31.13;20.17;;;-4.90;91.00;;;-5.79;84.64;100017.31;5086572;28;20205;-70
2023/02/07 03:50:59;;;;;;;32.40;20.43;;;-4.90;91.10;;;-5.92;84.70;100008.19;5085770;28;20504;-71
2023/02/07 03:53:27;;;;;;;30.47;20.60;;;-4.90;91.40;;;-5.87;85.13;100027.28;5086163;28;20948;-70
2023/02/07 03:55:54;;;;;;;32.37;20.33;;;-5.00;91.40;;;-5.86;84.71;100037.78;5079659;28;20450;-71
2023/02/07 03:58:22;;;;;;;33.27;21.23;;;-5.00;91.30;;;-5.79;84.25;100040.16;5076855;28;20470;-70
2023/02/07 04:00:49;;;;;;;30.10;20.30;;;-5.00;91.10;;;-5.92;84.51;100043.25;5081464;28;20447;-71
2023/02/07 04:03:16;;;;;;;35.63;20.00;;;-5.10;90.80;;;-5.99;84.48;100042.69;5081240;28;20443;-71
2023/02/07 04:05:48;;;;;;;34.37;20.50;;;-5.20;91.20;;;-6.02;84.74;100045.44;5065709;28;20991;-70
2023/02/07 04:08:17;;;;;;;30.30;20.30;;;-5.30;91.80;;;-6.03;84.65;100049.00;5089869;28;20545;-72
2023/02/07 04:10:44;;;;;;;30.77;20.77;;;-5.30;91.70;;;-6.05;84.78;100044.72;5089606;28;20436;-70
2023/02/07 04:13:11;;;;;;;25.97;20.40;;;-5.30;92.30;;;-6.09;85.09;100043.97;5089086;28;20455;-71
2023/02/07 04:15:38;;;;;;;33.63;22.03;;;-5.30;92.10;;;-6.09;84.94;100037.84;5090002;28;20448;-71
2023/02/07 04:18:05;;;;;;;29.23;21.40;;;-5.40;92.40;;;-6.05;84.76;100050.81;5091308;28;20454;-70
2023/02/07 04:20:32;;;;;;;35.00;21.87;;;-5.30;92.20;;;-6.04;84.55;100046.44;5074761;28;20467;-70
2023/02/07 04:23:00;;;;;;;32.55;20.15;;;-5.30;92.20;;;-6.09;83.97;100049.25;5087822;28;20474;-69
2023/02/07 04:25:28;;;;;;;33.00;20.47;;;-5.30;91.80;;;-6.11;84.33;100056.34;5078852;28;20214;-68
2023/02/07 04:27:55;;;;;;;31.90;22.40;;;-5.40;91.50;;;-6.22;84.70;100045.38;5084202;28;20497;-69
2023/02/07 04:30:23;;;;;;;36.23;23.13;;;-5.50;91.70;;;-6.29;85.03;100047.38;5086793;28;20468;-70
2023/02/07 04:32:52;;;;;;;35.83;21.53;;;-5.40;92.00;;;-6.21;84.74;100036.56;5083162;28;20882;-70
2023/02/07 04:35:19;;;;;;;34.83;21.67;;;-5.30;91.60;;;-6.48;84.87;99984.06;5081897;28;20471;-69
2023/02/07 04:37:46;;;;;;;32.17;21.23;;;-5.40;91.30;;;-6.15;84.39;100033.66;5103604;28;21193;-71
2023/02/07 04:40:14;;;;;;;33.60;22.23;;;-5.40;91.50;;;-6.18;84.83;100029.41;5083137;28;20974;-69
2023/02/07 04:42:42;;;;;;;37.67;24.10;;;-5.30;91.40;;;-6.35;85.07;100022.16;5085679;28;20980;-70
2023/02/07 04:45:10;;;;;;;38.37;22.80;;;-5.30;91.00;;;-6.27;85.12;100030.63;5081567;28;20448;-71
2023/02/07 04:47:37;;;;;;;32.67;21.67;;;-5.30;91.40;;;-6.19;84.90;100037.34;5084321;28;20509;-71
2023/02/07 04:50:04;;;;;;;32.90;21.80;;;-5.30;91.30;;;-6.22;84.87;100042.72;5077619;28;20458;-71
2023/02/07 04:52:32;;;;;;;34.70;24.33;;;-5.30;91.00;;;-6.27;84.60;100029.75;5085212;28;20448;-71
2023/02/07 04:54:59;;;;;;;35.33;21.73;;;-5.40;90.70;;;-6.31;84.28;100039.53;5088495;28;20482;-73
2023/02/07 04:57:26;;;;;;;36.57;21.50;;;-5.40;90.40;;;-6.27;84.27;100027.13;5089151;28;20489;-71
2023/02/07 04:59:55;;;;;;;34.07;22.00;;;-5.50;90.90;;;-6.74;84.66;99957.00;5090034;28;20551;-70
2023/02/07 05:02:22;;;;;;;37.70;23.13;;;-5.50;90.90;;;-6.32;84.78;100037.81;5089178;28;20495;-69
2023/02/07 05:04:50;;;;;;;32.77;22.70;;;-5.50;91.00;;;-6.50;85.02;100039.38;5082234;28;20452;-70
2023/02/07 05:07:17;;;;;;;35.33;21.93;;;-5.50;91.40;;;-6.43;85.32;100032.13;5076312;28;20455;-69
2023/02/07 05:09:44;;;;;;;37.03;22.43;;;-5.50;91.70;;;-6.38;85.08;100031.91;5085305;28;20452;-70
2023/02/07 05:12:12;;;;;;;38.33;22.70;;;-5.50;91.20;;;-6.42;84.61;100033.84;5078636;28;20487;-68
2023/02/07 05:14:39;;;;;;;33.63;21.93;;;-5.50;90.80;;;-6.42;84.67;100037.31;5087797;28;20499;-70
2023/02/07 05:17:08;;;;;;;38.57;22.83;;;-5.50;90.70;;;-6.41;84.64;100038.19;5087657;28;20474;-71
2023/02/07 05:19:35;;;;;;;33.77;21.73;;;-5.50;90.60;;;-6.45;84.00;100039.19;5078647;28;20845;-69
2023/02/07 05:22:03;;;;;;;38.13;22.87;;;-5.60;90.20;;;-6.50;84.20;100035.88;5099827;28;20470;-68
2023/02/07 05:24:30;;;;;;;33.13;22.10;;;-5.70;90.50;;;-6.53;84.55;100033.38;5098034;28;20463;-69
2023/02/07 05:26:58;;;;;;;33.27;23.23;;;-5.70;90.50;;;-6.56;84.43;100037.84;5082973;28;20455;-68
2023/02/07 05:29:25;;;;;;;37.47;23.40;;;-5.80;91.00;;;-6.65;84.54;100038.16;5085058;28;20483;-69
2023/02/07 05:34:39;;;;;;;34.40;21.60;;;-5.80;90.60;;;-6.61;83.59;100039.75;5076532;28;20455;-68
2023/02/07 05:37:06;;;;;;;37.57;23.40;;;-5.80;90.40;;;-6.59;83.60;100039.72;5079598;28;20438;-70
2023/02/07 05:39:33;;;;;;;33.63;23.07;;;-5.80;90.10;;;-6.76;84.40;100053.47;5085672;28;20487;-69
2023/02/07 05:42:00;;;;;;;33.67;21.83;;;-5.80;89.70;;;-6.61;84.15;100052.91;5075069;28;20466;-69
2023/02/07 05:44:27;;;;;;;31.70;21.50;;;-5.70;90.60;;;-6.65;84.63;100061.81;5073787;28;21228;-66
2023/02/07 05:46:54;;;;;;;32.37;21.47;;;-5.70;90.30;;;-6.58;84.32;100063.34;5097397;28;20470;-67
2023/02/07 05:49:22;;;;;;;34.77;23.30;;;-5.70;90.40;;;-6.67;84.15;100063.66;5078440;28;20464;-68
2023/02/07 05:51:50;;;;;;;39.33;22.47;;;-5.80;90.10;;;-6.50;83.64;100070.06;5077464;28;20448;-68
2023/02/07 05:54:17;;;;;;;37.23;22.73;;;-5.70;90.20;;;-6.64;84.10;100086.38;5081209;28;20464;-67
2023/02/07 05:56:45;;;;;;;40.70;22.67;;;-5.70;89.10;;;-6.67;84.20;100089.94;5083707;28;20440;-69
2023/02/07 05:59:12;;;;;;;35.30;21.87;;;-5.80;90.00;;;-6.64;83.98;100100.34;5086744;28;20553;-69
2023/02/07 06:01:39;;;;;;;35.73;22.67;;;-5.70;89.40;;;-6.75;84.01;100090.22;5080942;28;20440;-68
2023/02/07 06:04:06;;;;;;;36.53;23.27;;;-5.70;88.30;;;-6.65;83.95;100098.66;5072122;28;20452;-68
2023/02/07 06:06:34;;;;;;;33.07;22.60;;;-5.80;89.40;;;-6.81;83.62;100093.09;5080329;28;20456;-70
2023/02/07 06:09:02;;;;;;;33.70;21.63;;;-5.80;89.00;;;-6.83;85.02;100098.38;5070783;28;20457;-73
2023/02/07 06:11:29;;;;;;;36.23;23.53;;;-5.90;90.10;;;-6.77;84.75;100099.06;5078828;28;20448;-74
2023/02/07 06:13:57;;;;;;;41.40;23.43;;;-5.80;90.20;;;-6.69;84.05;100091.78;5083908;28;20463;-74
2023/02/07 06:16:24;;;;;;;36.97;22.83;;;-5.80;90.20;;;-6.87;84.40;100069.63;5083758;28;20898;-74
2023/02/07 06:18:52;;;;;;;33.60;22.80;;;-5.80;90.20;;;-6.69;84.08;100097.03;5078389;28;20456;-75
2023/02/07 06:21:19;;;;;;;41.23;24.20;;;-5.80;89.70;;;-7.14;84.37;100048.63;5079401;28;21185;-74
2023/02/07 06:23:47;;;;;;;38.53;21.20;;;-5.80;89.80;;;-7.18;84.60;100036.53;5078243;28;20473;-74
2023/02/07 06:26:16;;;;;;;36.30;22.33;;;-5.80;90.20;;;-6.73;84.47;100116.47;5073390;28;20958;-72
2023/02/07 06:28:44;;;;;;;36.63;22.50;;;-5.80;90.00;;;-6.67;84.38;100118.88;5079521;28;20455;-73
2023/02/07 06:31:11;;;;;;;33.83;22.40;;;-5.80;89.80;;;-6.78;83.84;100127.16;5074161;28;21368;-73
2023/02/07 06:33:38;;;;;;;40.17;24.20;;;-5.80;89.60;;;-6.70;83.99;100137.41;5076460;28;20455;-72
2023/02/07 06:36:06;;;;;;;39.03;22.03;;;-5.80;89.50;;;-6.61;83.85;100146.75;5074295;28;20464;-73
2023/02/07 06:38:33;;;;;;;32.70;22.13;;;-5.80;89.90;;;-6.65;83.75;100140.72;5078351;28;20451;-74
2023/02/07 06:41:01;;;;;;;29.47;20.77;;;-5.80;89.70;;;-6.78;83.44;100099.97;5082990;28;20444;-74
2023/02/07 06:43:29;;;;;;;29.53;19.97;;;-5.80;90.00;;;-6.52;83.02;100142.94;5082593;28;20487;-73
2023/02/07 06:45:57;;;;;;;28.63;21.03;;;-5.70;89.60;;;-6.64;83.11;100136.34;5082302;28;20587;-75
2023/02/07 06:48:24;;;;;;;34.50;22.63;;;-5.80;88.90;;;-6.55;83.03;100149.16;5077547;28;20467;-73
2023/02/07 06:50:51;;;;;;;34.23;21.27;;;-5.80;89.00;;;-6.58;83.01;100158.03;5069800;28;21258;-72
2023/02/07 06:53:18;;;;;;;34.60;20.17;;;-5.70;88.80;;;-6.58;83.26;100150.13;5075747;28;20922;-75
2023/02/07 06:55:46;;;;;;;40.60;20.97;;;-5.70;88.10;;;-6.52;83.41;100154.31;5079619;28;20959;-73
2023/02/07 06:58:13;;;;;;;34.33;21.27;;;-5.70;88.30;;;-6.46;82.84;100154.09;5077061;28;20794;-73
2023/02/07 07:00:42;;;;;;;34.30;20.53;;;-5.60;87.50;;;-6.84;82.79;100082.66;5077467;28;20463;-72
2023/02/07 07:03:13;;;;;;;33.57;20.83;;;-5.60;87.10;;;-6.59;83.10;100139.66;5081128;28;20497;-71
2023/02/07 07:05:40;;;;;;;31.90;20.13;;;-5.70;87.70;;;-6.36;82.52;100151.97;5075058;28;20587;-74
2023/02/07 07:08:08;;;;;;;34.03;21.53;;;-5.60;87.30;;;-6.41;82.25;100156.56;5076334;28;20544;-72
2023/02/07 07:10:35;;;;;;;34.23;20.70;;;-5.50;86.60;;;-6.42;82.52;100152.22;5076261;28;20459;-71
2023/02/07 07:13:02;;;;;;;30.60;20.30;;;-5.60;87.00;;;-6.28;82.21;100149.06;5088610;28;20447;-71
2023/02/07 07:15:29;;;;;;;30.80;20.63;;;-5.50;87.20;;;-6.20;81.92;100157.56;5077137;28;20432;-72
2023/02/07 07:17:58;;;;;;;34.70;22.20;;;-5.50;86.90;;;-6.32;81.92;100164.09;5077296;28;20475;-72
2023/02/07 07:20:26;;;;;;;32.80;20.87;;;-5.50;85.70;;;-6.22;81.95;100158.53;5081117;28;20470;-73
2023/02/07 07:22:54;;;;;;;36.60;20.00;;;-5.50;86.00;;;-6.09;81.72;100165.06;5116932;28;20491;-74
2023/02/07 07:25:21;;;;;;;32.90;21.07;;;-5.30;85.80;;;-6.06;81.10;100164.94;5099885;28;20565;-73
2023/02/07 07:27:48;;;;;;;31.30;20.93;;;-5.30;85.10;;;-6.19;81.21;100171.56;5108581;28;20511;-71
2023/02/07 07:30:16;;;;;;;30.10;21.30;;;-5.30;84.20;;;-6.21;81.71;100176.03;5104002;28;20922;-71
2023/02/07 07:32:43;;;;;;;33.57;20.90;;;-5.30;84.40;;;-6.07;81.82;100162.34;5097181;28;20468;-71
2023/02/07 07:35:12;;;;;;;34.17;21.70;;;-5.30;85.10;;;-5.95;81.10;100163.66;5083652;28;20453;-72
2023/02/07 07:37:40;;;;;;;32.90;20.20;;;-5.20;85.40;;;-5.86;80.83;100171.19;5086901;28;20451;-73
2023/02/07 07:40:09;;;;;;;30.90;20.13;;;-5.10;84.90;;;-5.99;80.91;100166.41;5092629;28;20435;-74
2023/02/07 07:42:36;;;;;;;31.53;22.03;;;-5.10;83.80;;;-5.93;80.63;100161.81;5087533;28;20477;-70
2023/02/07 07:45:05;;;;;;;33.37;21.00;;;-5.10;83.70;;;-6.09;80.28;100119.44;5086482;28;20448;-71
2023/02/07 07:47:32;;;;;;;30.58;20.50;;;-5.00;83.70;;;-5.75;80.13;100170.81;5085017;28;20444;-72
2023/02/07 07:50:00;;;;;;;28.70;19.23;;;-4.90;83.30;;;-5.78;80.25;100168.28;5084877;28;20895;-76
2023/02/07 07:52:29;;;;;;;26.47;18.07;;;-4.90;82.60;;;-5.73;79.71;100161.06;5083226;28;20535;-75
2023/02/07 07:54:56;;;;;;;28.43;19.13;;;-4.90;82.00;;;-5.73;79.80;100171.59;5083461;28;20534;-74
2023/02/07 07:57:26;;;;;;;32.53;21.20;;;-4.80;81.00;;;-5.87;79.81;100167.72;5087538;28;20463;-74
2023/02/07 07:59:54;;;;;;;28.27;19.37;;;-4.80;80.50;;;-5.58;79.63;100178.06;5079521;28;20463;-75
2023/02/07 08:02:21;;;;;;;31.57;18.13;;;-4.70;81.60;;;-5.49;79.01;100184.75;5097003;27;20465;-74
2023/02/07 08:04:49;;;;;;;29.80;18.73;;;-4.60;80.50;;;-5.47;78.94;100177.63;5077865;28;20452;-71
2023/02/07 08:07:16;;;;;;;31.10;19.37;;;-4.60;79.70;;;-5.44;78.60;100162.56;5078286;28;20459;-75
2023/02/07 08:09:45;;;;;;;30.63;18.90;;;-4.50;79.40;;;-5.30;78.71;100161.16;5086683;28;20444;-74
2023/02/07 08:12:12;;;;;;;30.00;18.90;;;-4.50;79.20;;;-5.17;77.66;100159.75;5089864;28;20965;-74
2023/02/07 08:14:41;;;;;;;31.47;20.40;;;-4.40;78.50;;;-5.32;78.03;100165.63;5089651;28;20451;-72
2023/02/07 08:17:10;;;;;;;31.13;19.47;;;-4.40;77.70;;;-5.31;77.87;100159.44;5078177;28;20863;-75
2023/02/07 08:19:38;;;;;;;26.57;18.43;;;-4.40;77.90;;;-5.26;77.37;100155.72;5077683;28;20457;-72
2023/02/07 08:22:06;;;;;;;31.73;19.07;;;-4.30;77.00;;;-5.16;77.04;100165.88;5095366;28;20431;-71
2023/02/07 08:24:34;;;;;;;33.57;19.97;;;-4.30;76.60;;;-5.14;77.21;100164.88;5084029;28;20471;-71
2023/02/07 08:27:04;;;;;;;28.40;18.83;;;-4.20;76.70;;;-5.11;77.09;100158.66;5080554;28;20435;-71
2023/02/07 08:29:31;;;;;;;26.73;17.67;;;-4.20;76.70;;;-5.21;77.19;100160.81;5082592;28;21142;-70
2023/02/07 08:31:58;;;;;;;25.60;16.77;;;-4.20;76.30;;;-4.95;76.45;100158.00;5080251;28;20456;-70
2023/02/07 08:34:27;;;;;;;27.70;17.73;;;-4.10;76.20;;;-4.87;76.10;100153.25;5085389;28;20458;-71
2023/02/07 08:36:55;;;;;;;30.53;19.77;;;-4.00;75.90;;;-4.66;75.81;100154.13;5085764;28;20459;-71
2023/02/07 08:39:22;;;;;;;30.03;20.43;;;-3.80;76.10;;;-4.85;75.65;100154.91;5086414;28;20460;-71
2023/02/07 08:41:50;;;;;;;32.50;19.67;;;-3.80;74.90;;;-4.74;75.31;100154.47;5087625;28;20457;-71
2023/02/07 08:44:18;;;;;;;28.17;18.63;;;-3.80;75.00;;;-4.92;75.51;100145.56;5085942;28;20921;-70
2023/02/07 08:46:45;;;;;;;26.27;16.53;;;-3.80;74.60;;;-4.66;74.96;100148.84;5077347;28;20454;-73
2023/02/07 08:49:13;;;;;;;24.60;18.03;;;-3.80;74.50;;;-4.47;74.14;100142.81;5084742;28;20453;-71
2023/02/07 08:51:40;;;;;;;27.07;17.73;;;-3.60;74.50;;;-4.29;73.85;100142.00;5090906;28;20483;-70
2023/02/07 08:54:09;;;;;;;27.23;17.73;;;-3.60;74.40;;;-4.34;73.82;100149.22;5077291;28;20455;-70
2023/02/07 08:56:36;;;;;;;26.77;18.30;;;-3.50;73.80;;;-4.30;73.18;100132.34;5087604;28;20444;-71
2023/02/07 08:59:03;;;;;;;25.87;17.17;;;-3.40;73.50;;;-4.12;72.41;100151.78;5092294;28;21153;-70
2023/02/07 09:01:32;;;;;;;27.87;17.80;;;-3.30;72.90;;;-4.08;72.34;100151.66;5080276;28;20536;-70
2023/02/07 09:03:59;;;;;;;28.83;19.73;;;-3.30;72.70;;;-4.01;72.27;100151.31;5075378;28;20483;-70
2023/02/07 09:06:27;;;;;;;27.03;18.40;;;-3.20;72.60;;;-4.10;71.63;100145.56;5084253;28;20518;-73
2023/02/07 09:08:54;;;;;;;27.80;17.93;;;-3.20;72.00;;;-3.82;71.03;100139.03;5084963;28;20474;-70
2023/02/07 09:11:22;;;;;;;26.90;17.60;;;-3.10;72.10;;;-3.79;70.84;100128.31;5103668;27;20547;-70
2023/02/07 09:13:50;;;;;;;28.03;16.67;;;-3.00;71.70;;;-3.75;70.31;100151.88;5092067;28;20449;-70
2023/02/07 09:16:17;;;;;;;24.17;16.07;;;-2.90;71.30;;;-3.64;69.78;100137.31;5090336;28;20970;-71
2023/02/07 09:18:45;;;;;;;24.17;16.67;;;-2.90;71.00;;;-3.53;70.25;100140.31;5092339;28;20440;-71
2023/02/07 09:21:13;;;;;;;26.33;17.83;;;-2.80;70.90;;;-3.28;69.62;100137.34;5081475;28;20542;-71
2023/02/07 09:23:40;;;;;;;25.23;17.40;;;-2.60;71.10;;;-3.53;69.01;100128.88;5067877;28;21240;-71
2023/02/07 09:26:08;;;;;;;27.00;17.17;;;-2.60;70.10;;;-3.47;69.40;100139.16;5088064;28;20444;-70
2023/02/07 09:28:36;;;;;;;29.77;18.40;;;-2.60;70.20;;;-3.14;68.98;100136.66;5091016;28;20455;-72
2023/02/07 09:31:09;;;;;;;25.07;17.20;;;-2.50;70.50;;;-3.25;68.68;100146.03;5082652;28;20464;-72
2023/02/07 09:33:36;;;;;;;23.77;17.80;;;-2.40;69.80;;;-3.66;68.69;100131.25;5084021;28;20633;-70
2023/02/07 09:36:07;;;;;;;19.80;15.43;;;-2.60;68.80;;;-3.52;68.47;100131.44;5085430;28;20456;-70
2023/02/07 09:38:34;;;;;;;23.67;15.50;;;-2.60;68.90;;;-3.47;67.67;100129.44;5084861;28;20891;-70
2023/02/07 09:41:01;;;;;;;20.43;14.60;;;-2.60;68.30;;;-3.51;67.25;100101.44;5083651;28;20454;-69
2023/02/07 09:43:40;;;;;;;22.83;16.37;;;-2.50;68.10;;;-3.03;67.33;100122.03;5089467;28;20481;-70
2023/02/07 09:46:17;;;;;;;22.33;16.53;;;-2.40;68.60;;;-2.79;66.31;100129.69;5075943;28;20468;-70
2023/02/07 09:48:50;;;;;;;24.67;16.40;;;-2.10;68.00;;;-3.10;66.52;100136.53;5078768;28;21780;-71
2023/02/07 09:51:22;;;;;;;20.83;16.13;;;-2.20;66.90;;;-3.23;65.97;100129.19;5091102;28;20493;-70
2023/02/07 09:53:54;;;;;;;26.07;17.00;;;-2.20;66.50;;;-3.00;66.27;100125.41;5086799;28;20465;-69
2023/02/07 09:56:24;;;;;;;22.17;14.83;;;-2.20;67.10;;;-2.83;65.68;100133.41;5095786;28;20479;-70
2023/02/07 09:58:58;;;;;;;24.83;17.27;;;-2.10;66.50;;;-3.03;65.53;100116.75;5080460;28;20521;-73
2023/02/07 10:01:33;;;;;;;24.43;14.53;;;-2.00;65.90;;;-2.76;64.84;100130.38;5078957;28;20443;-70
2023/02/07 10:04:13;;;;;;;23.33;16.40;;;-1.90;65.50;;;-2.85;64.65;100130.84;5077621;28;20537;-71
2023/02/07 10:06:49;;;;;;;24.33;16.80;;;-2.00;65.00;;;-2.91;64.67;100125.84;5084221;28;21156;-71
2023/02/07 10:09:18;;;;;;;24.93;16.23;;;-1.90;64.70;;;-2.80;64.41;100128.81;5086396;28;20457;-76
2023/02/07 10:11:52;;;;;;;25.20;16.07;;;-2.00;64.60;;;-2.76;64.00;100129.53;5078200;28;20445;-72
2023/02/07 10:14:42;;;;;;;20.70;15.70;;;-1.90;64.20;;;-3.05;63.81;100057.78;5092259;28;20786;-71